Pagrindinis puslapis
METAR-TAF:

METAR-TAF

Oro uostai :

Pėčas, Vengrija

platuma: 46-06N, ilguma: 018-14E, Aukštis: 201 m

Dabartinis oras

Ataskaita buvo paskelbta 11 valandos ir 15 minutes, ne 16:45 UTC
Vėjas 7 kt iš Rytų/Pietryčių
Temperatūra -3°C
Drėgmė 100%
Slėgis 1026 hPa
Matomumas: 0150 m
įšaldymas rūko

METAR: LHPP 171645Z 11007KT 0150 FZFG VV002 M03/M03 Q1026

Laikas: 05:00 (04:00 UTC)

Prognozė

Ataskaita buvo paskelbta 13 valandos ir 45 minutes, ne 14:15 UTC
Prognozė galioja nuo 17 metu 15 UTC su 17 metu 24 UTC
Vėjas 6 kt iš Pietryčių
Matomumas: 0150 m
ne aukštis 200 ft
įšaldymas rūko

TAF: LHPP 171415Z 1715/1724 13006KT 0150 FZFG VV002

Orai ataskaitas ir orų prognozės (METAR, TAF).

turimą stotys yra geltonos ir raudonos taškus žemėlapyje.

Perkelti pele per norėdami pamatyti stoties vardą.

Tada spustelėkite, norėdami matyti oro stebėjimo ir prognozės.

Norėdami pakeisti žemėlapį: spustelėkite ant žalios mygtukų su juodo kryžiaus žemyn,; žalią mygtuką su brūkšneliu, jei norite nutolinti; arba žalių rodyklių gretimoms žemėlapius.


METAR-TAF: